createdAt,value
2017-12-03T00:00:27.776Z,18.10
2017-12-03T00:02:55.295Z,18.92
2017-12-03T00:05:23.599Z,20.17
2017-12-03T00:07:51.171Z,19.67
2017-12-03T00:10:19.014Z,18.55
2017-12-03T00:12:47.398Z,18.50
2017-12-03T00:15:14.982Z,17.90
2017-12-03T00:17:42.504Z,18.62
2017-12-03T00:20:10.856Z,18.00
2017-12-03T00:22:38.382Z,17.27
2017-12-03T00:25:06.050Z,18.30
2017-12-03T00:27:33.562Z,19.48
2017-12-03T00:30:01.883Z,18.50
2017-12-03T00:32:29.534Z,19.42
2017-12-03T00:34:57.106Z,18.62
2017-12-03T00:37:24.670Z,20.20
2017-12-03T00:39:52.199Z,18.58
2017-12-03T00:42:20.611Z,18.55
2017-12-03T00:44:48.172Z,18.52
2017-12-03T00:47:15.827Z,19.48
2017-12-03T00:49:43.346Z,18.10
2017-12-03T00:52:10.930Z,22.13
2017-12-03T00:54:39.312Z,17.25
2017-12-03T00:57:06.886Z,17.40
2017-12-03T00:59:34.407Z,17.65
2017-12-03T01:02:02.098Z,17.85
2017-12-03T01:04:29.664Z,18.55
2017-12-03T01:06:57.226Z,17.45
2017-12-03T01:09:24.750Z,18.20
2017-12-03T01:11:52.341Z,17.80
2017-12-03T01:14:19.854Z,17.42
2017-12-03T01:16:47.470Z,18.52
2017-12-03T01:19:15.024Z,17.65
2017-12-03T01:21:42.562Z,17.33
2017-12-03T01:24:10.838Z,18.40
2017-12-03T01:26:39.126Z,19.85
2017-12-03T01:29:07.398Z,17.05
2017-12-03T01:31:36.192Z,17.52
2017-12-03T01:34:03.744Z,17.62
2017-12-03T01:36:32.044Z,19.30
2017-12-03T01:38:59.909Z,18.17
2017-12-03T01:41:28.613Z,18.90
2017-12-03T01:43:56.162Z,18.27
2017-12-03T01:46:23.682Z,19.25
2017-12-03T01:48:51.681Z,18.23
2017-12-03T01:51:19.318Z,19.30
2017-12-03T01:53:47.980Z,18.58
2017-12-03T01:56:15.947Z,17.92
2017-12-03T01:58:43.685Z,17.27
2017-12-03T02:01:12.276Z,17.52
2017-12-03T02:03:39.950Z,18.92
2017-12-03T02:06:08.025Z,18.12
2017-12-03T02:08:36.721Z,18.67
2017-12-03T02:11:04.782Z,17.52
2017-12-03T02:13:32.387Z,18.98
2017-12-03T02:16:00.700Z,19.65
2017-12-03T02:18:28.631Z,17.65
2017-12-03T02:20:57.086Z,19.40
2017-12-03T02:23:24.617Z,17.02
2017-12-03T02:25:52.274Z,20.05
2017-12-03T02:28:19.798Z,18.95
2017-12-03T02:30:48.209Z,19.35
2017-12-03T02:33:15.767Z,19.40
2017-12-03T02:35:43.298Z,20.42
2017-12-03T02:38:10.815Z,19.23
2017-12-03T02:40:38.502Z,19.37
2017-12-03T02:43:06.157Z,17.95
2017-12-03T02:45:34.015Z,17.65
2017-12-03T02:48:01.600Z,20.92
2017-12-03T02:50:29.218Z,18.83
2017-12-03T02:52:56.760Z,19.10
2017-12-03T02:55:25.169Z,18.15
2017-12-03T02:57:52.694Z,19.05
2017-12-03T03:00:20.972Z,16.65
2017-12-03T03:02:49.280Z,17.85
2017-12-03T03:05:16.819Z,17.00
2017-12-03T03:07:44.342Z,18.50
2017-12-03T03:10:11.846Z,18.08
2017-12-03T03:12:39.376Z,18.40
2017-12-03T03:15:07.658Z,17.33
2017-12-03T03:17:35.949Z,18.65
2017-12-03T03:20:03.460Z,17.85
2017-12-03T03:22:31.078Z,18.58
2017-12-03T03:24:58.594Z,18.85
2017-12-03T03:27:26.126Z,18.95
2017-12-03T03:29:53.663Z,17.80
2017-12-03T03:32:21.202Z,17.70
2017-12-03T03:34:49.499Z,17.70
2017-12-03T03:37:17.037Z,17.90
2017-12-03T03:39:45.339Z,16.98
2017-12-03T03:42:12.900Z,14.18
2017-12-03T03:44:40.411Z,17.65
2017-12-03T03:47:07.922Z,17.27
2017-12-03T03:49:35.454Z,16.55
2017-12-03T03:52:03.755Z,15.57
2017-12-03T03:54:31.288Z,15.27
2017-12-03T03:56:59.562Z,16.85
2017-12-03T03:59:27.868Z,14.50
2017-12-03T04:01:55.422Z,15.65
2017-12-03T04:04:22.951Z,16.23
2017-12-03T04:06:50.472Z,13.85
2017-12-03T04:09:18.002Z,14.55
2017-12-03T04:11:45.562Z,16.42
2017-12-03T04:14:13.130Z,15.98
2017-12-03T04:16:40.635Z,12.63
2017-12-03T04:19:08.246Z,14.85
2017-12-03T04:21:35.771Z,13.95
2017-12-03T04:24:03.288Z,13.35
2017-12-03T04:26:30.826Z,12.68
2017-12-03T04:28:58.382Z,14.70
2017-12-03T04:31:25.908Z,12.68
2017-12-03T04:33:53.441Z,12.82
2017-12-03T04:36:20.970Z,13.32
2017-12-03T04:38:48.481Z,12.07
2017-12-03T04:41:16.094Z,12.90
2017-12-03T04:43:43.653Z,11.93
2017-12-03T04:46:11.189Z,12.27
2017-12-03T04:48:39.482Z,12.45
2017-12-03T04:51:07.019Z,13.05
2017-12-03T04:53:35.294Z,13.10
2017-12-03T04:56:03.598Z,12.27
2017-12-03T04:58:31.122Z,11.48
2017-12-03T05:00:58.638Z,11.70
2017-12-03T05:03:26.174Z,11.12
2017-12-03T05:05:53.683Z,13.10
2017-12-03T05:08:21.213Z,12.50
2017-12-03T05:10:48.726Z,11.12
2017-12-03T05:13:16.323Z,11.10
2017-12-03T05:15:43.837Z,13.10
2017-12-03T05:18:11.365Z,11.70
2017-12-03T05:20:38.873Z,12.20
2017-12-03T05:23:07.192Z,11.80
2017-12-03T05:25:34.705Z,10.88
2017-12-03T05:28:02.309Z,10.52
2017-12-03T05:30:29.842Z,11.75
2017-12-03T05:32:58.155Z,11.27
2017-12-03T05:35:28.614Z,11.32
2017-12-03T05:37:56.217Z,12.55
2017-12-03T05:40:23.750Z,12.20
2017-12-03T05:42:51.267Z,12.13
2017-12-03T05:45:18.806Z,10.65
2017-12-03T05:47:46.314Z,10.25
2017-12-03T05:50:13.858Z,12.80
2017-12-03T05:52:41.383Z,10.00
2017-12-03T05:55:08.950Z,9.80
2017-12-03T05:57:36.485Z,10.43
2017-12-03T06:00:04.779Z,8.52
2017-12-03T06:02:33.078Z,9.75
2017-12-03T06:05:00.611Z,9.30
2017-12-03T06:07:28.888Z,9.98
2017-12-03T06:09:57.173Z,8.88
2017-12-03T06:12:24.690Z,9.32
2017-12-03T06:14:52.208Z,8.73
2017-12-03T06:17:19.710Z,8.55
2017-12-03T06:19:47.250Z,9.43
2017-12-03T06:22:14.762Z,9.68
2017-12-03T06:24:43.076Z,8.23
2017-12-03T06:27:10.603Z,8.90
2017-12-03T06:29:38.877Z,8.57
2017-12-03T06:32:07.168Z,9.50
2017-12-03T06:34:35.442Z,10.27
2017-12-03T06:37:03.017Z,9.90
2017-12-03T06:39:30.623Z,9.40
2017-12-03T06:41:58.246Z,8.95
2017-12-03T06:44:25.795Z,9.63
2017-12-03T06:46:53.363Z,10.70
2017-12-03T06:49:20.876Z,9.70
2017-12-03T06:51:48.407Z,7.75
2017-12-03T06:54:15.946Z,8.48
2017-12-03T06:56:43.495Z,9.30
2017-12-03T06:59:10.999Z,9.95
2017-12-03T07:01:38.532Z,8.95
2017-12-03T07:04:06.037Z,8.65
2017-12-03T07:06:33.631Z,9.07
2017-12-03T07:09:01.200Z,8.63
2017-12-03T07:11:28.754Z,8.20
2017-12-03T07:13:56.321Z,8.15
2017-12-03T07:16:23.856Z,7.30
2017-12-03T07:18:52.135Z,8.65
2017-12-03T07:21:20.443Z,8.70
2017-12-03T07:23:47.952Z,7.30
2017-12-03T07:26:15.551Z,7.03
2017-12-03T07:28:43.076Z,6.68
2017-12-03T07:31:10.672Z,7.90
2017-12-03T07:33:38.199Z,7.95
2017-12-03T07:36:05.702Z,8.27
2017-12-03T07:38:33.227Z,6.93
2017-12-03T07:41:01.546Z,7.60
2017-12-03T07:43:29.074Z,6.65
2017-12-03T07:45:57.453Z,6.82
2017-12-03T07:48:26.168Z,7.43
2017-12-03T07:50:53.679Z,7.68
2017-12-03T07:53:21.220Z,6.53
2017-12-03T07:55:48.732Z,7.68
2017-12-03T07:58:16.355Z,7.97
2017-12-03T08:00:44.702Z,6.72
2017-12-03T08:03:12.241Z,7.05
2017-12-03T08:05:39.772Z,7.15
2017-12-03T08:08:08.051Z,7.50
2017-12-03T08:10:36.358Z,7.82
2017-12-03T08:13:03.958Z,7.68
2017-12-03T08:15:31.747Z,7.82
2017-12-03T08:17:59.987Z,8.75
2017-12-03T08:20:27.519Z,7.40
2017-12-03T08:22:55.027Z,8.13
2017-12-03T08:25:22.559Z,7.65
2017-12-03T08:27:50.093Z,7.65
2017-12-03T08:30:17.650Z,8.30
2017-12-03T08:32:46.034Z,6.40
2017-12-03T08:35:13.599Z,6.95
2017-12-03T08:37:41.106Z,6.78
2017-12-03T08:40:08.639Z,7.32
2017-12-03T08:42:36.195Z,8.70
2017-12-03T08:45:03.737Z,6.97
2017-12-03T08:47:31.310Z,7.62
2017-12-03T08:49:58.841Z,7.68
2017-12-03T08:52:27.139Z,7.80
2017-12-03T08:54:54.653Z,7.50
2017-12-03T08:57:22.268Z,7.93
2017-12-03T08:59:49.823Z,7.22
2017-12-03T09:02:17.345Z,7.35
2017-12-03T09:04:44.862Z,8.55
2017-12-03T09:07:12.412Z,8.18
2017-12-03T09:09:39.954Z,8.52
2017-12-03T09:12:07.495Z,7.15
2017-12-03T09:14:35.794Z,7.20
2017-12-03T09:17:03.325Z,7.43
2017-12-03T09:19:31.599Z,8.05
2017-12-03T09:21:59.190Z,7.78
2017-12-03T09:24:27.466Z,8.43
2017-12-03T09:26:54.998Z,7.20
2017-12-03T09:29:22.513Z,8.10
2017-12-03T09:31:50.035Z,7.93
2017-12-03T09:34:18.317Z,7.93
2017-12-03T09:36:46.678Z,7.85
2017-12-03T09:39:14.985Z,8.13
2017-12-03T09:41:42.542Z,7.95
2017-12-03T09:44:10.055Z,9.45
2017-12-03T09:46:37.585Z,8.57
2017-12-03T09:49:05.129Z,9.38
2017-12-03T09:51:32.683Z,9.18
2017-12-03T09:54:00.251Z,8.82
2017-12-03T09:56:27.761Z,8.45
2017-12-03T09:58:55.286Z,9.00
2017-12-03T10:01:22.801Z,9.32
2017-12-03T10:03:51.093Z,8.50
2017-12-03T10:06:19.374Z,9.50
2017-12-03T10:08:46.903Z,9.50
2017-12-03T10:11:14.504Z,8.55
2017-12-03T10:13:42.060Z,7.95
2017-12-03T10:16:09.647Z,8.27
2017-12-03T10:18:37.186Z,8.77
2017-12-03T10:21:04.765Z,9.45
2017-12-03T10:23:32.294Z,8.57
2017-12-03T10:25:59.895Z,8.77
2017-12-03T10:28:27.530Z,8.60
2017-12-03T10:30:55.087Z,9.98
2017-12-03T10:33:22.656Z,9.38
2017-12-03T10:35:50.224Z,10.45
2017-12-03T10:38:20.650Z,9.25
2017-12-03T10:40:48.179Z,10.02
2017-12-03T10:43:16.477Z,9.25
2017-12-03T10:45:44.041Z,9.80
2017-12-03T10:48:11.598Z,9.65
2017-12-03T10:50:39.129Z,9.05
2017-12-03T10:53:07.443Z,9.68
2017-12-03T10:55:34.978Z,9.65
2017-12-03T10:58:03.276Z,9.73
2017-12-03T11:00:30.815Z,9.48
2017-12-03T11:02:59.125Z,9.93
2017-12-03T11:05:26.692Z,9.73
2017-12-03T11:07:54.238Z,9.90
2017-12-03T11:10:21.803Z,10.57
2017-12-03T11:12:49.381Z,10.23
2017-12-03T11:15:16.958Z,10.80
2017-12-03T11:17:44.582Z,9.70
2017-12-03T11:20:12.122Z,9.73
2017-12-03T11:22:39.719Z,9.10
2017-12-03T11:25:07.248Z,10.05
2017-12-03T11:27:34.829Z,9.95
2017-12-03T11:30:02.432Z,11.02
2017-12-03T11:32:30.016Z,10.40
2017-12-03T11:34:58.315Z,10.70
2017-12-03T11:37:25.858Z,10.05
2017-12-03T11:39:54.164Z,10.48
2017-12-03T11:42:21.718Z,10.20
2017-12-03T11:44:49.228Z,11.52
2017-12-03T11:47:16.859Z,10.10
2017-12-03T11:49:44.380Z,10.60
2017-12-03T11:52:12.679Z,10.45
2017-12-03T11:54:40.371Z,10.55
2017-12-03T11:57:08.025Z,10.50
2017-12-03T11:59:35.697Z,10.02
2017-12-03T12:02:03.243Z,10.50
2017-12-03T12:04:30.798Z,10.35
2017-12-03T12:06:58.359Z,11.00
2017-12-03T12:09:25.907Z,10.45
2017-12-03T12:11:53.431Z,10.48
2017-12-03T12:14:21.031Z,9.75
2017-12-03T12:16:48.553Z,10.93
2017-12-03T12:19:16.103Z,10.13
2017-12-03T12:21:43.728Z,11.10
2017-12-03T12:24:11.276Z,11.65
2017-12-03T12:26:38.795Z,10.95
2017-12-03T12:29:06.336Z,9.13
2017-12-03T12:31:33.856Z,8.70
2017-12-03T12:34:01.402Z,11.73
2017-12-03T12:36:29.685Z,9.32
2017-12-03T12:38:57.203Z,9.63
2017-12-03T12:41:26.246Z,9.52
2017-12-03T12:43:53.766Z,10.57
2017-12-03T12:46:21.373Z,10.73
2017-12-03T12:48:48.935Z,10.32
2017-12-03T12:51:16.513Z,10.43
2017-12-03T12:53:44.051Z,9.68
2017-12-03T12:56:11.579Z,9.55
2017-12-03T12:58:39.097Z,9.95
2017-12-03T13:01:06.735Z,9.55
2017-12-03T13:03:34.256Z,10.75
2017-12-03T13:06:01.763Z,9.55
2017-12-03T13:08:29.286Z,10.30
2017-12-03T13:10:57.578Z,10.50
2017-12-03T13:13:25.862Z,10.15
2017-12-03T13:15:53.385Z,9.57
2017-12-03T13:18:22.431Z,11.10
2017-12-03T13:20:49.995Z,11.10
2017-12-03T13:23:17.512Z,11.55
2017-12-03T13:25:45.795Z,9.82
2017-12-03T13:28:14.210Z,10.70
2017-12-03T13:30:41.782Z,10.85
2017-12-03T13:33:09.318Z,11.60
2017-12-03T13:35:36.834Z,11.68
2017-12-03T13:38:04.365Z,11.50
2017-12-03T13:40:31.886Z,11.27
2017-12-03T13:43:00.183Z,11.12
2017-12-03T13:45:27.695Z,11.20
2017-12-03T13:47:55.215Z,11.00
2017-12-03T13:50:22.726Z,10.55
2017-12-03T13:52:51.025Z,10.40
2017-12-03T13:55:19.328Z,10.60
2017-12-03T13:57:46.887Z,10.07
2017-12-03T14:00:14.446Z,10.60
2017-12-03T14:02:41.970Z,10.40
2017-12-03T14:05:10.250Z,10.65
2017-12-03T14:07:38.542Z,10.10
2017-12-03T14:10:06.061Z,10.40
2017-12-03T14:12:33.617Z,10.27
2017-12-03T14:15:01.134Z,10.75
2017-12-03T14:17:28.692Z,10.30
2017-12-03T14:19:56.226Z,9.70
2017-12-03T14:22:24.587Z,12.48
2017-12-03T14:24:52.152Z,10.68
2017-12-03T14:27:19.683Z,10.18
2017-12-03T14:29:47.198Z,9.98
2017-12-03T14:32:14.743Z,10.45
2017-12-03T14:34:43.041Z,10.60
2017-12-03T14:37:10.558Z,10.27
2017-12-03T14:39:38.167Z,11.57
2017-12-03T14:42:05.690Z,11.35
2017-12-03T14:44:34.006Z,11.07
2017-12-03T14:47:01.523Z,12.02
2017-12-03T14:49:29.057Z,11.38
2017-12-03T14:51:56.587Z,11.07
2017-12-03T14:54:24.122Z,11.23
2017-12-03T14:56:52.419Z,9.98
2017-12-03T14:59:19.934Z,11.30
2017-12-03T15:01:47.533Z,11.32
2017-12-03T15:04:15.831Z,11.63
2017-12-03T15:06:43.388Z,12.43
2017-12-03T15:09:10.910Z,12.65
2017-12-03T15:11:38.498Z,13.90
2017-12-03T15:14:06.077Z,13.35
2017-12-03T15:16:33.607Z,13.27
2017-12-03T15:19:01.906Z,14.82
2017-12-03T15:21:29.430Z,13.75
2017-12-03T15:23:57.020Z,13.38
2017-12-03T15:26:24.559Z,14.13
2017-12-03T15:28:52.833Z,15.45
2017-12-03T15:31:20.431Z,16.85
2017-12-03T15:33:47.994Z,20.80
2017-12-03T15:36:15.547Z,18.60
2017-12-03T15:38:43.085Z,16.05
2017-12-03T15:41:11.478Z,16.33
2017-12-03T15:43:39.054Z,21.12
2017-12-03T15:46:06.646Z,21.00
2017-12-03T15:48:34.174Z,17.55
2017-12-03T15:51:01.736Z,18.52
2017-12-03T15:53:29.299Z,16.40
2017-12-03T15:55:56.867Z,17.20
2017-12-03T15:58:24.402Z,15.70
2017-12-03T16:00:51.925Z,15.30
2017-12-03T16:03:19.528Z,16.60
2017-12-03T16:05:47.110Z,17.73
2017-12-03T16:08:14.656Z,15.70
2017-12-03T16:10:42.225Z,15.35
2017-12-03T16:13:09.877Z,16.42
2017-12-03T16:15:37.390Z,15.98
2017-12-03T16:18:04.910Z,14.68
2017-12-03T16:20:32.466Z,15.13
2017-12-03T16:22:59.983Z,15.20
2017-12-03T16:25:27.523Z,14.30
2017-12-03T16:27:55.135Z,13.85
2017-12-03T16:30:22.670Z,13.60
2017-12-03T16:32:50.967Z,14.63
2017-12-03T16:35:18.529Z,14.50
2017-12-03T16:37:46.107Z,15.45
2017-12-03T16:40:13.640Z,14.38
2017-12-03T16:42:41.924Z,19.60
2017-12-03T16:45:10.314Z,16.58
2017-12-03T16:47:37.831Z,15.25
2017-12-03T16:50:05.433Z,15.80
2017-12-03T16:52:33.008Z,14.30
2017-12-03T16:55:01.066Z,14.43
2017-12-03T16:57:28.591Z,15.07
2017-12-03T16:59:56.203Z,13.65
2017-12-03T17:02:23.718Z,14.18
2017-12-03T17:04:51.310Z,15.10
2017-12-03T17:07:18.882Z,15.15
2017-12-03T17:09:46.435Z,14.48
2017-12-03T17:12:13.938Z,14.00
2017-12-03T17:14:41.450Z,15.23
2017-12-03T17:17:08.986Z,15.18
2017-12-03T17:19:37.296Z,15.55
2017-12-03T17:22:04.897Z,15.90
2017-12-03T17:24:32.440Z,16.30
2017-12-03T17:26:59.972Z,16.37
2017-12-03T17:29:27.514Z,15.52
2017-12-03T17:31:55.919Z,15.25
2017-12-03T17:34:23.487Z,16.37
2017-12-03T17:36:51.023Z,13.80
2017-12-03T17:39:18.538Z,16.23
2017-12-03T17:41:46.177Z,17.05
2017-12-03T17:44:13.799Z,16.37
2017-12-03T17:46:42.195Z,16.30
2017-12-03T17:49:10.582Z,17.23
2017-12-03T17:51:38.907Z,16.80
2017-12-03T17:54:06.550Z,14.73
2017-12-03T17:56:34.106Z,15.32
2017-12-03T17:59:01.621Z,17.05
2017-12-03T18:01:29.947Z,17.98
2017-12-03T18:03:57.499Z,16.23
2017-12-03T18:06:25.069Z,15.50
2017-12-03T18:08:52.588Z,16.00
2017-12-03T18:11:20.143Z,16.80
2017-12-03T18:13:47.727Z,17.30
2017-12-03T18:16:16.038Z,16.00
2017-12-03T18:18:43.567Z,17.45
2017-12-03T18:21:11.081Z,18.02
2017-12-03T18:23:38.617Z,18.65
2017-12-03T18:26:06.246Z,17.48
2017-12-03T18:28:33.807Z,17.62
2017-12-03T18:31:01.349Z,17.35
2017-12-03T18:33:28.931Z,17.67
2017-12-03T18:35:56.507Z,18.17
2017-12-03T18:38:24.066Z,18.90
2017-12-03T18:40:51.601Z,18.73
2017-12-03T18:43:19.177Z,19.55
2017-12-03T18:45:46.739Z,17.05
2017-12-03T18:48:14.245Z,16.10
2017-12-03T18:50:43.274Z,17.10
2017-12-03T18:53:10.790Z,17.65
2017-12-03T18:55:38.440Z,18.17
2017-12-03T18:58:05.958Z,17.65
2017-12-03T19:00:33.498Z,19.95
2017-12-03T19:03:01.774Z,19.33
2017-12-03T19:05:31.610Z,16.83
2017-12-03T19:07:59.176Z,18.50
2017-12-03T19:10:26.735Z,16.30
2017-12-03T19:12:54.298Z,17.45
2017-12-03T19:15:21.856Z,18.52
2017-12-03T19:17:49.533Z,18.45
2017-12-03T19:20:17.074Z,18.52
2017-12-03T19:22:44.597Z,18.75
2017-12-03T19:25:12.137Z,20.10
2017-12-03T19:27:39.771Z,20.48
2017-12-03T19:30:07.333Z,19.95
2017-12-03T19:32:34.906Z,19.45
2017-12-03T19:35:02.542Z,19.83
2017-12-03T19:37:30.124Z,19.83
2017-12-03T19:39:57.653Z,22.23
2017-12-03T19:42:25.236Z,23.58
2017-12-03T19:44:52.758Z,22.23
2017-12-03T19:47:21.066Z,22.58
2017-12-03T19:49:48.583Z,20.00
2017-12-03T19:52:16.123Z,19.05
2017-12-03T19:54:43.645Z,17.37
2017-12-03T19:57:11.188Z,18.90
2017-12-03T19:59:39.476Z,18.15
2017-12-03T20:02:07.043Z,16.50
2017-12-03T20:04:34.607Z,15.98
2017-12-03T20:07:02.181Z,16.42
2017-12-03T20:09:29.697Z,17.48
2017-12-03T20:11:58.008Z,18.90
2017-12-03T20:14:25.531Z,17.65
2017-12-03T20:16:53.843Z,19.42
2017-12-03T20:19:21.442Z,18.77
2017-12-03T20:21:49.067Z,18.08
2017-12-03T20:24:16.586Z,18.25
2017-12-03T20:26:44.907Z,20.20
2017-12-03T20:29:12.439Z,19.17
2017-12-03T20:31:40.733Z,18.83
2017-12-03T20:34:08.246Z,21.10
2017-12-03T20:36:35.868Z,20.45
2017-12-03T20:39:03.443Z,18.85
2017-12-03T20:41:31.018Z,19.65
2017-12-03T20:43:58.531Z,19.90
2017-12-03T20:46:26.061Z,18.50
2017-12-03T20:48:55.088Z,19.40
2017-12-03T20:51:22.662Z,19.80
2017-12-03T20:53:50.335Z,18.65
2017-12-03T20:56:17.879Z,18.90
2017-12-03T20:58:45.546Z,19.40
2017-12-03T21:01:13.062Z,20.42
2017-12-03T21:03:40.595Z,18.65
2017-12-03T21:06:08.130Z,18.75
2017-12-03T21:08:35.689Z,19.40
2017-12-03T21:11:03.253Z,21.55
2017-12-03T21:13:30.908Z,18.58
2017-12-03T21:15:58.427Z,21.95
2017-12-03T21:18:26.044Z,18.33
2017-12-03T21:20:53.594Z,22.58
2017-12-03T21:23:21.121Z,20.30
2017-12-03T21:25:49.422Z,21.65
2017-12-03T21:28:17.106Z,20.70
2017-12-03T21:30:44.694Z,19.85
2017-12-03T21:33:12.238Z,19.33
2017-12-03T21:35:39.771Z,19.48
2017-12-03T21:38:07.368Z,18.70
2017-12-03T21:40:34.891Z,19.15
2017-12-03T21:43:03.194Z,19.50
2017-12-03T21:45:30.724Z,19.42
2017-12-03T21:47:58.263Z,21.42
2017-12-03T21:50:26.556Z,18.20
2017-12-03T21:52:54.955Z,19.08
2017-12-03T21:55:22.623Z,17.35
2017-12-03T21:57:50.188Z,18.65
2017-12-03T22:00:17.698Z,20.00
2017-12-03T22:02:45.319Z,18.62
2017-12-03T22:05:12.839Z,19.17
2017-12-03T22:07:41.126Z,17.83
2017-12-03T22:10:08.638Z,17.63
2017-12-03T22:12:36.167Z,19.95
2017-12-03T22:15:03.697Z,18.75
2017-12-03T22:17:31.334Z,19.77
2017-12-03T22:19:59.615Z,19.40
2017-12-03T22:22:27.232Z,19.02
2017-12-03T22:24:54.776Z,19.48
2017-12-03T22:27:22.292Z,19.37
2017-12-03T22:29:49.830Z,21.33
2017-12-03T22:32:17.370Z,20.55
2017-12-03T22:34:44.914Z,19.77
2017-12-03T22:37:12.483Z,17.90
2017-12-03T22:39:40.037Z,21.27
2017-12-03T22:42:07.607Z,19.57
2017-12-03T22:44:35.147Z,19.37
2017-12-03T22:47:02.670Z,19.40
2017-12-03T22:49:30.293Z,19.45
2017-12-03T22:51:57.819Z,19.30
2017-12-03T22:54:26.128Z,20.00
2017-12-03T22:56:53.683Z,16.77
2017-12-03T22:59:21.234Z,19.98
2017-12-03T23:01:48.747Z,18.57
2017-12-03T23:04:16.278Z,17.60
2017-12-03T23:06:43.795Z,17.60
2017-12-03T23:09:12.093Z,19.90
2017-12-03T23:11:39.606Z,18.08
2017-12-03T23:14:08.654Z,17.70
2017-12-03T23:16:36.197Z,18.75
2017-12-03T23:19:04.473Z,17.77
2017-12-03T23:21:32.770Z,16.75
2017-12-03T23:24:00.283Z,18.02
2017-12-03T23:26:27.801Z,18.37
2017-12-03T23:28:55.308Z,17.13
2017-12-03T23:31:22.910Z,18.17
2017-12-03T23:33:50.451Z,16.73
2017-12-03T23:36:18.747Z,19.05
2017-12-03T23:38:46.263Z,17.75
2017-12-03T23:41:13.802Z,17.02
2017-12-03T23:43:41.326Z,16.30
2017-12-03T23:46:08.858Z,16.50
2017-12-03T23:48:37.172Z,17.30
2017-12-03T23:51:04.745Z,15.40
2017-12-03T23:53:32.245Z,16.80
2017-12-03T23:56:00.549Z,17.40
2017-12-03T23:58:28.081Z,17.67
